Terminal Aerodrome Forecast
Issued by NWS

Home | Current Version | Previous Version | Text Only | Print | Product List | Glossary On
Versions: 1 2 3 4 5 6 7 8 9 10 11 12 13 14 15 16 17 18 19 20 21
421
FTUS43 KABR 241136
TAFATY
TAF
KATY 241136Z 2412/2512 01021G30KT P6SM BKN120
     FM242300 35017G25KT P6SM SCT110
     FM250600 34012KT P6SM SCT130=

USA.gov is the U.S. government's official web portal to all federal, state and local government web resources and services.